sensor_id;sensor_type;location;lat;lon;timestamp;pressure;altitude;pressure_sealevel;temperature;humidity
58967;BME280;44744;51.894;5.080;2023-02-11T00:00:38;103568.35;;;6.10;81.68
58967;BME280;44744;51.894;5.080;2023-02-11T00:01:39;103566.95;;;6.10;81.73
58967;BME280;44744;51.894;5.080;2023-02-11T00:02:40;103562.20;;;6.10;81.93
58967;BME280;44744;51.894;5.080;2023-02-11T00:03:40;103559.91;;;6.10;81.71
58967;BME280;44744;51.894;5.080;2023-02-11T00:04:40;103557.81;;;6.11;81.63
58967;BME280;44744;51.894;5.080;2023-02-11T00:05:41;103554.47;;;6.10;81.78
58967;BME280;44744;51.894;5.080;2023-02-11T00:06:41;103550.61;;;6.11;81.92
58967;BME280;44744;51.894;5.080;2023-02-11T00:07:42;103544.81;;;6.10;81.76
58967;BME280;44744;51.894;5.080;2023-02-11T00:08:42;103544.64;;;6.11;81.85
58967;BME280;44744;51.894;5.080;2023-02-11T00:09:42;103542.70;;;6.10;81.81
58967;BME280;44744;51.894;5.080;2023-02-11T00:10:43;103546.03;;;6.10;81.79
58967;BME280;44744;51.894;5.080;2023-02-11T00:11:43;103543.75;;;6.10;81.72
58967;BME280;44744;51.894;5.080;2023-02-11T00:12:44;103545.17;;;6.11;81.85
58967;BME280;44744;51.894;5.080;2023-02-11T00:13:45;103543.05;;;6.11;81.87
58967;BME280;44744;51.894;5.080;2023-02-11T00:14:46;103544.13;;;6.12;81.84
58967;BME280;44744;51.894;5.080;2023-02-11T00:15:48;103547.83;;;6.13;81.77
58967;BME280;44744;51.894;5.080;2023-02-11T00:16:49;103546.94;;;6.13;81.67
58967;BME280;44744;51.894;5.080;2023-02-11T00:17:52;103548.17;;;6.12;81.71
58967;BME280;44744;51.894;5.080;2023-02-11T00:18:52;103547.64;;;6.12;81.61
58967;BME280;44744;51.894;5.080;2023-02-11T00:19:53;103551.15;;;6.12;81.73
58967;BME280;44744;51.894;5.080;2023-02-11T00:20:53;103547.27;;;6.12;81.57
58967;BME280;44744;51.894;5.080;2023-02-11T00:21:53;103545.88;;;6.11;81.76
58967;BME280;44744;51.894;5.080;2023-02-11T00:22:54;103540.93;;;6.11;81.59
58967;BME280;44744;51.894;5.080;2023-02-11T00:23:56;103548.67;;;6.10;81.58
58967;BME280;44744;51.894;5.080;2023-02-11T00:24:56;103548.14;;;6.10;81.55
58967;BME280;44744;51.894;5.080;2023-02-11T00:25:56;103552.19;;;6.10;81.59
58967;BME280;44744;51.894;5.080;2023-02-11T00:26:57;103552.52;;;6.09;81.54
58967;BME280;44744;51.894;5.080;2023-02-11T00:27:58;103551.83;;;6.09;81.54
58967;BME280;44744;51.894;5.080;2023-02-11T00:29:00;103553.59;;;6.08;81.56
58967;BME280;44744;51.894;5.080;2023-02-11T00:30:01;103549.71;;;6.08;81.63
58967;BME280;44744;51.894;5.080;2023-02-11T00:31:01;103549.17;;;6.08;81.74
58967;BME280;44744;51.894;5.080;2023-02-11T00:32:01;103548.47;;;6.07;81.55
58967;BME280;44744;51.894;5.080;2023-02-11T00:33:02;103556.91;;;6.07;81.72
58967;BME280;44744;51.894;5.080;2023-02-11T00:34:03;103557.27;;;6.07;81.80
58967;BME280;44744;51.894;5.080;2023-02-11T00:35:03;103554.98;;;6.07;81.65
58967;BME280;44744;51.894;5.080;2023-02-11T00:36:08;103554.45;;;6.07;81.71
58967;BME280;44744;51.894;5.080;2023-02-11T00:37:09;103556.38;;;6.07;81.78
58967;BME280;44744;51.894;5.080;2023-02-11T00:38:09;103556.21;;;6.08;81.82
58967;BME280;44744;51.894;5.080;2023-02-11T00:39:09;103553.23;;;6.07;81.87
58967;BME280;44744;51.894;5.080;2023-02-11T00:40:14;103550.59;;;6.07;81.61
58967;BME280;44744;51.894;5.080;2023-02-11T00:41:17;103546.20;;;6.07;81.75
58967;BME280;44744;51.894;5.080;2023-02-11T00:42:18;103540.39;;;6.07;81.65
58967;BME280;44744;51.894;5.080;2023-02-11T00:43:18;103541.45;;;6.08;81.90
58967;BME280;44744;51.894;5.080;2023-02-11T00:44:19;103547.25;;;6.08;81.87
58967;BME280;44744;51.894;5.080;2023-02-11T00:45:19;103548.11;;;6.07;81.92
58967;BME280;44744;51.894;5.080;2023-02-11T00:46:20;103545.85;;;6.07;81.84
58967;BME280;44744;51.894;5.080;2023-02-11T00:47:20;103542.33;;;6.07;81.87
58967;BME280;44744;51.894;5.080;2023-02-11T00:48:21;103543.55;;;6.07;81.74
58967;BME280;44744;51.894;5.080;2023-02-11T00:49:21;103544.60;;;6.07;81.84
58967;BME280;44744;51.894;5.080;2023-02-11T00:50:22;103536.70;;;6.07;81.77
58967;BME280;44744;51.894;5.080;2023-02-11T00:51:27;103542.85;;;6.07;81.66
58967;BME280;44744;51.894;5.080;2023-02-11T00:52:28;103538.98;;;6.07;81.65
58967;BME280;44744;51.894;5.080;2023-02-11T00:53:28;103543.04;;;6.08;81.86
58967;BME280;44744;51.894;5.080;2023-02-11T00:54:28;103539.16;;;6.09;81.83
58967;BME280;44744;51.894;5.080;2023-02-11T00:55:29;103536.55;;;6.10;81.88
58967;BME280;44744;51.894;5.080;2023-02-11T00:56:30;103540.59;;;6.11;81.87
58967;BME280;44744;51.894;5.080;2023-02-11T00:57:30;103541.30;;;6.12;81.80
58967;BME280;44744;51.894;5.080;2023-02-11T00:58:31;103539.90;;;6.11;81.81
58967;BME280;44744;51.894;5.080;2023-02-11T00:59:31;103539.02;;;6.11;81.84
58967;BME280;44744;51.894;5.080;2023-02-11T01:00:32;103542.34;;;6.11;81.72
58967;BME280;44744;51.894;5.080;2023-02-11T01:01:32;103540.59;;;6.11;81.77
58967;BME280;44744;51.894;5.080;2023-02-11T01:02:33;103542.88;;;6.11;81.67
58967;BME280;44744;51.894;5.080;2023-02-11T01:03:33;103545.35;;;6.12;81.81
58967;BME280;44744;51.894;5.080;2023-02-11T01:04:34;103549.03;;;6.12;81.74
58967;BME280;44744;51.894;5.080;2023-02-11T01:05:34;103549.21;;;6.11;81.80
58967;BME280;44744;51.894;5.080;2023-02-11T01:06:35;103548.15;;;6.11;81.81
58967;BME280;44744;51.894;5.080;2023-02-11T01:07:35;103547.79;;;6.10;81.79
58967;BME280;44744;51.894;5.080;2023-02-11T01:08:35;103544.27;;;6.10;81.89
58967;BME280;44744;51.894;5.080;2023-02-11T01:09:38;103541.45;;;6.09;81.93
58967;BME280;44744;51.894;5.080;2023-02-11T01:10:39;103540.23;;;6.09;81.85
58967;BME280;44744;51.894;5.080;2023-02-11T01:11:39;103535.14;;;6.09;81.89
58967;BME280;44744;51.894;5.080;2023-02-11T01:12:40;103535.66;;;6.10;81.85
58967;BME280;44744;51.894;5.080;2023-02-11T01:13:40;103525.30;;;6.11;81.94
58967;BME280;44744;51.894;5.080;2023-02-11T01:14:41;103527.25;;;6.11;81.90
58967;BME280;44744;51.894;5.080;2023-02-11T01:15:41;103524.79;;;6.10;81.86
58967;BME280;44744;51.894;5.080;2023-02-11T01:16:42;103527.23;;;6.09;81.72
58967;BME280;44744;51.894;5.080;2023-02-11T01:17:42;103528.63;;;6.09;81.81
58967;BME280;44744;51.894;5.080;2023-02-11T01:18:42;103531.27;;;6.09;81.77
58967;BME280;44744;51.894;5.080;2023-02-11T01:19:43;103530.73;;;6.08;81.81
58967;BME280;44744;51.894;5.080;2023-02-11T01:20:43;103533.55;;;6.08;81.82
58967;BME280;44744;51.894;5.080;2023-02-11T01:21:44;103528.64;;;6.08;81.70
58967;BME280;44744;51.894;5.080;2023-02-11T01:22:44;103527.75;;;6.08;81.79
58967;BME280;44744;51.894;5.080;2023-02-11T01:23:44;103525.11;;;6.07;81.96
58967;BME280;44744;51.894;5.080;2023-02-11T01:24:45;103519.48;;;6.08;81.85
58967;BME280;44744;51.894;5.080;2023-02-11T01:25:45;103516.14;;;6.06;81.92
58967;BME280;44744;51.894;5.080;2023-02-11T01:26:46;103518.41;;;6.04;81.86
58967;BME280;44744;51.894;5.080;2023-02-11T01:27:46;103515.08;;;6.03;81.99
58967;BME280;44744;51.894;5.080;2023-02-11T01:28:46;103514.89;;;6.02;81.75
58967;BME280;44744;51.894;5.080;2023-02-11T01:29:47;103506.95;;;6.00;81.88
58967;BME280;44744;51.894;5.080;2023-02-11T01:30:47;103502.75;;;6.02;82.03
58967;BME280;44744;51.894;5.080;2023-02-11T01:31:48;103503.47;;;6.02;81.86
58967;BME280;44744;51.894;5.080;2023-02-11T01:32:48;103498.56;;;6.02;82.07
58967;BME280;44744;51.894;5.080;2023-02-11T01:33:48;103502.77;;;6.02;81.89
58967;BME280;44744;51.894;5.080;2023-02-11T01:34:49;103502.92;;;6.01;82.04
58967;BME280;44744;51.894;5.080;2023-02-11T01:35:49;103501.69;;;5.98;82.01
58967;BME280;44744;51.894;5.080;2023-02-11T01:36:49;103507.30;;;5.99;82.01
58967;BME280;44744;51.894;5.080;2023-02-11T01:37:50;103506.44;;;5.99;81.93
58967;BME280;44744;51.894;5.080;2023-02-11T01:38:50;103509.59;;;6.00;81.90
58967;BME280;44744;51.894;5.080;2023-02-11T01:39:51;103508.55;;;5.99;82.07
58967;BME280;44744;51.894;5.080;2023-02-11T01:40:56;103506.95;;;5.98;81.93
58967;BME280;44744;51.894;5.080;2023-02-11T01:42:00;103503.80;;;5.97;82.04
58967;BME280;44744;51.894;5.080;2023-02-11T01:43:01;103509.77;;;5.98;81.94
58967;BME280;44744;51.894;5.080;2023-02-11T01:44:24;103504.33;;;5.98;82.01
58967;BME280;44744;51.894;5.080;2023-02-11T01:46:45;103504.98;;;5.96;82.06
58967;BME280;44744;51.894;5.080;2023-02-11T01:47:45;103504.79;;;5.95;82.11
58967;BME280;44744;51.894;5.080;2023-02-11T01:48:52;103506.54;;;5.95;82.21
58967;BME280;44744;51.894;5.080;2023-02-11T01:49:56;103510.05;;;5.95;82.23
58967;BME280;44744;51.894;5.080;2023-02-11T01:51:14;103515.70;;;5.96;82.25
58967;BME280;44744;51.894;5.080;2023-02-11T01:52:42;103521.84;;;5.96;82.06
58967;BME280;44744;51.894;5.080;2023-02-11T01:53:45;103519.55;;;5.95;82.19
58967;BME280;44744;51.894;5.080;2023-02-11T01:54:50;103521.30;;;5.95;82.18
58967;BME280;44744;51.894;5.080;2023-02-11T01:55:52;103522.35;;;5.94;82.31
58967;BME280;44744;51.894;5.080;2023-02-11T01:56:55;103519.71;;;5.93;82.33
58967;BME280;44744;51.894;5.080;2023-02-11T01:58:01;103516.73;;;5.93;82.30
58967;BME280;44744;51.894;5.080;2023-02-11T01:59:07;103516.20;;;5.93;82.22
58967;BME280;44744;51.894;5.080;2023-02-11T02:00:22;103519.90;;;5.94;82.27
58967;BME280;44744;51.894;5.080;2023-02-11T02:01:24;103520.06;;;5.94;82.30
58967;BME280;44744;51.894;5.080;2023-02-11T02:03:04;103520.43;;;5.95;82.33
58967;BME280;44744;51.894;5.080;2023-02-11T02:04:05;103522.53;;;5.95;82.38
58967;BME280;44744;51.894;5.080;2023-02-11T02:06:21;103530.43;;;5.95;82.36
58967;BME280;44744;51.894;5.080;2023-02-11T02:09:07;103533.08;;;5.95;82.46
58967;BME280;44744;51.894;5.080;2023-02-11T02:10:16;103531.66;;;5.94;82.32
58967;BME280;44744;51.894;5.080;2023-02-11T02:11:17;103527.43;;;5.92;82.39
58967;BME280;44744;51.894;5.080;2023-02-11T02:12:18;103523.39;;;5.91;82.37
58967;BME280;44744;51.894;5.080;2023-02-11T02:13:18;103525.48;;;5.91;82.31
58967;BME280;44744;51.894;5.080;2023-02-11T02:14:19;103525.66;;;5.91;82.34
58967;BME280;44744;51.894;5.080;2023-02-11T02:16:29;103520.92;;;5.91;82.35
58967;BME280;44744;51.894;5.080;2023-02-11T02:17:37;103517.41;;;5.91;82.31
58967;BME280;44744;51.894;5.080;2023-02-11T02:19:12;103514.25;;;5.91;82.44
58967;BME280;44744;51.894;5.080;2023-02-11T02:26:11;103505.42;;;5.85;82.54
58967;BME280;44744;51.894;5.080;2023-02-11T02:35:26;103507.16;;;5.80;82.65
58967;BME280;44744;51.894;5.080;2023-02-11T02:36:33;103510.83;;;5.80;82.88
58967;BME280;44744;51.894;5.080;2023-02-11T02:38:02;103513.46;;;5.79;82.83
58967;BME280;44744;51.894;5.080;2023-02-11T02:39:11;103516.44;;;5.77;82.65
58967;BME280;44744;51.894;5.080;2023-02-11T02:40:24;103523.80;;;5.76;82.68
58967;BME280;44744;51.894;5.080;2023-02-11T02:41:31;103526.77;;;5.75;82.83
58967;BME280;44744;51.894;5.080;2023-02-11T02:42:32;103527.13;;;5.74;82.78
58967;BME280;44744;51.894;5.080;2023-02-11T02:43:34;103529.23;;;5.74;82.78
58967;BME280;44744;51.894;5.080;2023-02-11T02:44:36;103524.14;;;5.75;82.69
58967;BME280;44744;51.894;5.080;2023-02-11T02:45:36;103528.00;;;5.75;83.01
58967;BME280;44744;51.894;5.080;2023-02-11T02:46:39;103525.72;;;5.75;82.81
58967;BME280;44744;51.894;5.080;2023-02-11T02:47:39;103524.67;;;5.75;82.88
58967;BME280;44744;51.894;5.080;2023-02-11T02:48:40;103525.73;;;5.75;82.77
58967;BME280;44744;51.894;5.080;2023-02-11T02:49:40;103522.73;;;5.75;82.88
58967;BME280;44744;51.894;5.080;2023-02-11T02:50:41;103523.95;;;5.74;82.83
58967;BME280;44744;51.894;5.080;2023-02-11T02:52:06;103522.20;;;5.74;82.89
58967;BME280;44744;51.894;5.080;2023-02-11T02:53:40;103523.77;;;5.72;82.91
58967;BME280;44744;51.894;5.080;2023-02-11T02:55:08;103524.63;;;5.70;82.88
58967;BME280;44744;51.894;5.080;2023-02-11T03:01:27;103513.34;;;5.64;82.95
58967;BME280;44744;51.894;5.080;2023-02-11T03:02:35;103510.88;;;5.62;82.99
58967;BME280;44744;51.894;5.080;2023-02-11T03:03:58;103509.80;;;5.61;82.95
58967;BME280;44744;51.894;5.080;2023-02-11T03:05:09;103506.46;;;5.59;83.02
58967;BME280;44744;51.894;5.080;2023-02-11T03:06:48;103510.51;;;5.60;83.11
58967;BME280;44744;51.894;5.080;2023-02-11T03:07:58;103511.35;;;5.57;83.11
58967;BME280;44744;51.894;5.080;2023-02-11T03:09:48;103503.78;;;5.55;83.31
58967;BME280;44744;51.894;5.080;2023-02-11T03:10:33;103506.06;;;5.55;83.15
58967;BME280;44744;51.894;5.080;2023-02-11T03:11:36;103502.90;;;5.54;83.39
58967;BME280;44744;51.894;5.080;2023-02-11T03:12:36;103502.19;;;5.54;83.12
58967;BME280;44744;51.894;5.080;2023-02-11T03:13:38;103501.66;;;5.54;83.17
58967;BME280;44744;51.894;5.080;2023-02-11T03:14:40;103501.66;;;5.54;83.36
58967;BME280;44744;51.894;5.080;2023-02-11T03:15:43;103501.66;;;5.53;83.37
58967;BME280;44744;51.894;5.080;2023-02-11T03:16:47;103506.75;;;5.52;83.34
58967;BME280;44744;51.894;5.080;2023-02-11T03:17:51;103507.61;;;5.52;83.36
58967;BME280;44744;51.894;5.080;2023-02-11T03:19:00;103502.52;;;5.51;83.42
58967;BME280;44744;51.894;5.080;2023-02-11T03:20:04;103501.98;;;5.51;83.42
58967;BME280;44744;51.894;5.080;2023-02-11T03:21:07;103504.64;;;5.52;83.63
58967;BME280;44744;51.894;5.080;2023-02-11T03:22:18;103505.69;;;5.51;83.40
58967;BME280;44744;51.894;5.080;2023-02-11T03:23:33;103506.91;;;5.52;83.54
58967;BME280;44744;51.894;5.080;2023-02-11T03:24:37;103507.09;;;5.51;83.40
58967;BME280;44744;51.894;5.080;2023-02-11T03:25:47;103509.70;;;5.50;83.46
58967;BME280;44744;51.894;5.080;2023-02-11T03:26:51;103511.64;;;5.50;83.50
58967;BME280;44744;51.894;5.080;2023-02-11T03:27:58;103511.64;;;5.50;83.53
58967;BME280;44744;51.894;5.080;2023-02-11T03:29:17;103510.77;;;5.51;83.57
58967;BME280;44744;51.894;5.080;2023-02-11T03:30:27;103509.71;;;5.51;83.34
58967;BME280;44744;51.894;5.080;2023-02-11T03:31:31;103507.77;;;5.49;83.42
58967;BME280;44744;51.894;5.080;2023-02-11T03:32:39;103506.20;;;5.49;83.45
58967;BME280;44744;51.894;5.080;2023-02-11T03:33:56;103501.63;;;5.50;83.44
58967;BME280;44744;51.894;5.080;2023-02-11T03:35:03;103498.30;;;5.50;83.37
58967;BME280;44744;51.894;5.080;2023-02-11T03:36:15;103495.66;;;5.50;83.37
58967;BME280;44744;51.894;5.080;2023-02-11T03:37:28;103492.85;;;5.49;83.57
58967;BME280;44744;51.894;5.080;2023-02-11T03:38:43;103484.41;;;5.47;83.31
58967;BME280;44744;51.894;5.080;2023-02-11T03:39:50;103482.46;;;5.45;83.57
58967;BME280;44744;51.894;5.080;2023-02-11T03:40:53;103481.23;;;5.44;83.67
58967;BME280;44744;51.894;5.080;2023-02-11T03:41:58;103478.94;;;5.44;83.60
58967;BME280;44744;51.894;5.080;2023-02-11T03:43:07;103478.23;;;5.43;83.53
58967;BME280;44744;51.894;5.080;2023-02-11T03:44:11;103477.86;;;5.42;83.54
58967;BME280;44744;51.894;5.080;2023-02-11T03:45:17;103477.52;;;5.41;83.46
58967;BME280;44744;51.894;5.080;2023-02-11T03:46:24;103475.04;;;5.39;83.54
58967;BME280;44744;51.894;5.080;2023-02-11T03:47:28;103473.80;;;5.39;83.66
58967;BME280;44744;51.894;5.080;2023-02-11T03:48:35;103477.67;;;5.40;83.61
58967;BME280;44744;51.894;5.080;2023-02-11T03:49:37;103478.20;;;5.39;83.53
58967;BME280;44744;51.894;5.080;2023-02-11T03:50:40;103480.13;;;5.39;83.57
58967;BME280;44744;51.894;5.080;2023-02-11T03:51:40;103479.60;;;5.39;83.78
58967;BME280;44744;51.894;5.080;2023-02-11T03:52:41;103476.05;;;5.36;83.76
58967;BME280;44744;51.894;5.080;2023-02-11T03:53:43;103475.17;;;5.35;83.62
58967;BME280;44744;51.894;5.080;2023-02-11T03:54:47;103477.98;;;5.35;83.54
58967;BME280;44744;51.894;5.080;2023-02-11T03:55:51;103479.92;;;5.36;83.67
58967;BME280;44744;51.894;5.080;2023-02-11T03:56:55;103477.46;;;5.36;83.54
58967;BME280;44744;51.894;5.080;2023-02-11T03:57:56;103479.21;;;5.36;83.92
58967;BME280;44744;51.894;5.080;2023-02-11T03:58:57;103476.76;;;5.36;83.85
58967;BME280;44744;51.894;5.080;2023-02-11T03:59:58;103475.70;;;5.34;83.72
58967;BME280;44744;51.894;5.080;2023-02-11T04:01:00;103472.17;;;5.33;83.67
58967;BME280;44744;51.894;5.080;2023-02-11T04:02:00;103474.11;;;5.33;83.74
58967;BME280;44744;51.894;5.080;2023-02-11T04:03:01;103477.80;;;5.33;83.75
58967;BME280;44744;51.894;5.080;2023-02-11T04:04:02;103473.76;;;5.33;83.82
58967;BME280;44744;51.894;5.080;2023-02-11T04:05:04;103477.64;;;5.35;83.87
58967;BME280;44744;51.894;5.080;2023-02-11T04:06:05;103480.27;;;5.35;83.92
58967;BME280;44744;51.894;5.080;2023-02-11T04:07:05;103483.24;;;5.34;83.90
58967;BME280;44744;51.894;5.080;2023-02-11T04:08:06;103484.28;;;5.33;83.96
58967;BME280;44744;51.894;5.080;2023-02-11T04:09:27;103480.75;;;5.31;83.95
58967;BME280;44744;51.894;5.080;2023-02-11T04:10:27;103479.34;;;5.29;84.14
58967;BME280;44744;51.894;5.080;2023-02-11T04:11:27;103476.88;;;5.29;84.03
58967;BME280;44744;51.894;5.080;2023-02-11T04:12:28;103473.89;;;5.27;84.04
58967;BME280;44744;51.894;5.080;2023-02-11T04:13:28;103473.54;;;5.27;84.05
58967;BME280;44744;51.894;5.080;2023-02-11T04:14:29;103470.90;;;5.28;83.93
58967;BME280;44744;51.894;5.080;2023-02-11T04:15:29;103467.92;;;5.28;83.97
58967;BME280;44744;51.894;5.080;2023-02-11T04:16:29;103466.17;;;5.29;84.23
58967;BME280;44744;51.894;5.080;2023-02-11T04:17:30;103465.65;;;5.30;84.41
58967;BME280;44744;51.894;5.080;2023-02-11T04:18:30;103464.60;;;5.29;84.30
58967;BME280;44744;51.894;5.080;2023-02-11T04:19:31;103461.97;;;5.29;84.25
58967;BME280;44744;51.894;5.080;2023-02-11T04:20:31;103463.73;;;5.29;84.34
58967;BME280;44744;51.894;5.080;2023-02-11T04:21:32;103467.42;;;5.31;84.41
58967;BME280;44744;51.894;5.080;2023-02-11T04:22:32;103465.67;;;5.32;84.19
58967;BME280;44744;51.894;5.080;2023-02-11T04:23:32;103464.64;;;5.33;84.42
58967;BME280;44744;51.894;5.080;2023-02-11T04:24:36;103465.16;;;5.33;84.37
58967;BME280;44744;51.894;5.080;2023-02-11T04:25:36;103467.97;;;5.33;84.42
58967;BME280;44744;51.894;5.080;2023-02-11T04:26:37;103468.33;;;5.34;84.42
58967;BME280;44744;51.894;5.080;2023-02-11T04:27:37;103473.95;;;5.35;84.42
58967;BME280;44744;51.894;5.080;2023-02-11T04:28:38;103472.02;;;5.34;84.64
58967;BME280;44744;51.894;5.080;2023-02-11T04:29:39;103470.96;;;5.34;84.47
58967;BME280;44744;51.894;5.080;2023-02-11T04:30:39;103470.09;;;5.35;84.58
58967;BME280;44744;51.894;5.080;2023-02-11T04:31:40;103472.54;;;5.35;84.44
58967;BME280;44744;51.894;5.080;2023-02-11T04:32:40;103471.15;;;5.36;84.62
58967;BME280;44744;51.894;5.080;2023-02-11T04:33:40;103468.52;;;5.37;84.52
58967;BME280;44744;51.894;5.080;2023-02-11T04:34:41;103476.96;;;5.38;84.65
58967;BME280;44744;51.894;5.080;2023-02-11T04:35:41;103476.95;;;5.38;84.60
58967;BME280;44744;51.894;5.080;2023-02-11T04:36:41;103475.57;;;5.39;84.59
58967;BME280;44744;51.894;5.080;2023-02-11T04:37:42;103476.80;;;5.39;84.36
58967;BME280;44744;51.894;5.080;2023-02-11T04:38:42;103476.27;;;5.39;84.45
58967;BME280;44744;51.894;5.080;2023-02-11T04:39:42;103479.07;;;5.38;84.58
58967;BME280;44744;51.894;5.080;2023-02-11T04:40:43;103475.73;;;5.38;84.47
58967;BME280;44744;51.894;5.080;2023-02-11T04:41:43;103478.38;;;5.38;84.58
58967;BME280;44744;51.894;5.080;2023-02-11T04:42:44;103478.36;;;5.37;84.41
58967;BME280;44744;51.894;5.080;2023-02-11T04:43:44;103476.42;;;5.36;84.23
58967;BME280;44744;51.894;5.080;2023-02-11T04:44:44;103474.81;;;5.34;84.13
58967;BME280;44744;51.894;5.080;2023-02-11T04:45:45;103474.63;;;5.32;84.29
58967;BME280;44744;51.894;5.080;2023-02-11T04:46:45;103477.79;;;5.32;84.37
58967;BME280;44744;51.894;5.080;2023-02-11T04:47:46;103472.34;;;5.32;84.21
58967;BME280;44744;51.894;5.080;2023-02-11T04:48:46;103474.61;;;5.30;84.42
58967;BME280;44744;51.894;5.080;2023-02-11T04:49:46;103471.27;;;5.29;84.23
58967;BME280;44744;51.894;5.080;2023-02-11T04:50:50;103474.25;;;5.29;84.31
58967;BME280;44744;51.894;5.080;2023-02-11T04:51:51;103474.94;;;5.28;84.37
58967;BME280;44744;51.894;5.080;2023-02-11T04:52:51;103470.54;;;5.26;84.26
58967;BME280;44744;51.894;5.080;2023-02-11T04:53:51;103472.11;;;5.26;84.36
58967;BME280;44744;51.894;5.080;2023-02-11T04:54:52;103474.55;;;5.26;84.43
58967;BME280;44744;51.894;5.080;2023-02-11T04:55:52;103479.84;;;5.26;84.58
58967;BME280;44744;51.894;5.080;2023-02-11T04:56:52;103480.02;;;5.26;84.33
58967;BME280;44744;51.894;5.080;2023-02-11T04:57:53;103482.98;;;5.26;84.41
58967;BME280;44744;51.894;5.080;2023-02-11T04:58:53;103484.75;;;5.26;84.49
58967;BME280;44744;51.894;5.080;2023-02-11T04:59:53;103486.15;;;5.25;84.42
58967;BME280;44744;51.894;5.080;2023-02-11T05:00:54;103486.31;;;5.25;84.31
58967;BME280;44744;51.894;5.080;2023-02-11T05:01:54;103484.90;;;5.24;84.41
58967;BME280;44744;51.894;5.080;2023-02-11T05:02:54;103486.84;;;5.24;84.34
58967;BME280;44744;51.894;5.080;2023-02-11T05:03:55;103487.35;;;5.24;84.42
58967;BME280;44744;51.894;5.080;2023-02-11T05:04:55;103486.83;;;5.22;84.46
58967;BME280;44744;51.894;5.080;2023-02-11T05:05:55;103486.27;;;5.21;84.43
58967;BME280;44744;51.894;5.080;2023-02-11T05:06:55;103486.98;;;5.21;84.50
58967;BME280;44744;51.894;5.080;2023-02-11T05:07:56;103483.98;;;5.20;84.53
58967;BME280;44744;51.894;5.080;2023-02-11T05:08:56;103485.55;;;5.19;84.59
58967;BME280;44744;51.894;5.080;2023-02-11T05:09:56;103486.77;;;5.17;84.61
58967;BME280;44744;51.894;5.080;2023-02-11T05:10:57;103484.84;;;5.17;84.56
58967;BME280;44744;51.894;5.080;2023-02-11T05:11:57;103489.39;;;5.17;84.55
58967;BME280;44744;51.894;5.080;2023-02-11T05:12:58;103493.26;;;5.17;84.43
58967;BME280;44744;51.894;5.080;2023-02-11T05:13:58;103491.48;;;5.15;84.54
58967;BME280;44744;51.894;5.080;2023-02-11T05:14:58;103498.85;;;5.15;84.57
58967;BME280;44744;51.894;5.080;2023-02-11T05:15:58;103496.39;;;5.14;84.49
58967;BME280;44744;51.894;5.080;2023-02-11T05:16:59;103497.61;;;5.13;84.63
58967;BME280;44744;51.894;5.080;2023-02-11T05:17:59;103496.89;;;5.12;84.53
58967;BME280;44744;51.894;5.080;2023-02-11T05:18:59;103496.56;;;5.13;84.50
58967;BME280;44744;51.894;5.080;2023-02-11T05:20:00;103494.60;;;5.12;84.54
58967;BME280;44744;51.894;5.080;2023-02-11T05:21:05;103495.83;;;5.11;84.83
58967;BME280;44744;51.894;5.080;2023-02-11T05:22:06;103493.89;;;5.11;84.59
58967;BME280;44744;51.894;5.080;2023-02-11T05:23:06;103494.59;;;5.10;84.69
58967;BME280;44744;51.894;5.080;2023-02-11T05:24:06;103492.32;;;5.10;84.62
58967;BME280;44744;51.894;5.080;2023-02-11T05:25:10;103491.96;;;5.10;84.63
58967;BME280;44744;51.894;5.080;2023-02-11T05:26:10;103488.63;;;5.09;84.63
58967;BME280;44744;51.894;5.080;2023-02-11T05:27:20;103489.66;;;5.08;84.78
58967;BME280;44744;51.894;5.080;2023-02-11T05:28:21;103484.39;;;5.07;84.61
58967;BME280;44744;51.894;5.080;2023-02-11T05:29:21;103484.55;;;5.06;84.67
58967;BME280;44744;51.894;5.080;2023-02-11T05:30:24;103485.09;;;5.07;84.68
58967;BME280;44744;51.894;5.080;2023-02-11T05:31:24;103481.73;;;5.05;84.44
58967;BME280;44744;51.894;5.080;2023-02-11T05:32:25;103478.92;;;5.04;84.59
58967;BME280;44744;51.894;5.080;2023-02-11T05:33:25;103480.33;;;5.04;84.84
58967;BME280;44744;51.894;5.080;2023-02-11T05:34:26;103478.03;;;5.03;84.71
58967;BME280;44744;51.894;5.080;2023-02-11T05:35:26;103481.02;;;5.03;84.71
58967;BME280;44744;51.894;5.080;2023-02-11T05:36:26;103483.30;;;5.03;84.84
58967;BME280;44744;51.894;5.080;2023-02-11T05:37:27;103482.23;;;5.03;84.85
58967;BME280;44744;51.894;5.080;2023-02-11T05:38:27;103482.95;;;5.03;84.69
58967;BME280;44744;51.894;5.080;2023-02-11T05:39:28;103483.45;;;5.02;84.75
58967;BME280;44744;51.894;5.080;2023-02-11T05:40:28;103485.04;;;5.02;84.83
58967;BME280;44744;51.894;5.080;2023-02-11T05:41:28;103484.69;;;5.01;84.63
58967;BME280;44744;51.894;5.080;2023-02-11T05:42:31;103481.86;;;4.99;84.73
58967;BME280;44744;51.894;5.080;2023-02-11T05:43:32;103486.92;;;4.97;84.79
58967;BME280;44744;51.894;5.080;2023-02-11T05:44:32;103486.56;;;4.96;84.58
58967;BME280;44744;51.894;5.080;2023-02-11T05:45:33;103484.44;;;4.95;84.78
58967;BME280;44744;51.894;5.080;2023-02-11T05:46:33;103479.86;;;4.93;84.58
58967;BME280;44744;51.894;5.080;2023-02-11T05:47:33;103481.44;;;4.93;84.80
58967;BME280;44744;51.894;5.080;2023-02-11T05:48:34;103476.70;;;4.92;84.69
58967;BME280;44744;51.894;5.080;2023-02-11T05:49:34;103473.00;;;4.91;84.74
58967;BME280;44744;51.894;5.080;2023-02-11T05:50:37;103475.60;;;4.89;84.66
58967;BME280;44744;51.894;5.080;2023-02-11T05:51:37;103475.61;;;4.90;84.89
58967;BME280;44744;51.894;5.080;2023-02-11T05:52:38;103477.19;;;4.90;84.69
58967;BME280;44744;51.894;5.080;2023-02-11T05:53:38;103477.35;;;4.89;84.88
58967;BME280;44744;51.894;5.080;2023-02-11T05:54:39;103478.40;;;4.89;84.82
58967;BME280;44744;51.894;5.080;2023-02-11T05:55:39;103479.46;;;4.89;84.84
58967;BME280;44744;51.894;5.080;2023-02-11T05:56:42;103479.27;;;4.88;84.72
58967;BME280;44744;51.894;5.080;2023-02-11T05:57:43;103482.61;;;4.88;84.80
58967;BME280;44744;51.894;5.080;2023-02-11T05:58:43;103484.02;;;4.88;84.95